Time;durP1;ratioP1;P1;durP2;ratioP2;P2;SDS_P1;SDS_P2;PMS_P1;PMS_P2;Temp;Humidity;BMP_temperature;BMP_pressure;BME280_temperature;BME280_humidity;BME280_pressure;Samples;Min_cycle;Max_cycle;Signal;HPM_P1;HPM_P2
2022/10/23 00:00:44;;;;;;;12.00;7.05;;;;;;;15.22;61.21;101664.03;5007814;28;20072;-91
2022/10/23 00:03:09;;;;;;;10.20;6.65;;;;;;;15.26;61.60;101677.41;4986495;28;20026;-91
2022/10/23 00:05:40;;;;;;;11.35;6.93;;;;;;;15.25;61.66;101675.59;5011200;28;20510;-92
2022/10/23 00:08:13;;;;;;;10.93;6.35;;;;;;;15.04;61.78;101635.06;5012788;28;20034;-93
2022/10/23 00:10:46;;;;;;;12.45;6.57;;;;;;;15.27;61.72;101658.16;5013077;28;20033;-92
2022/10/23 00:13:17;;;;;;;10.23;6.45;;;;;;;15.22;61.56;101656.16;4984872;28;20415;-91
2022/10/23 00:15:54;;;;;;;9.45;6.30;;;;;;;15.18;61.59;101652.47;4991459;28;20044;-91
2022/10/23 00:18:22;;;;;;;10.60;6.75;;;;;;;15.11;61.76;101631.91;4998400;28;20157;-91
2022/10/23 00:21:11;;;;;;;10.52;6.55;;;;;;;15.31;61.68;101656.59;4990478;28;20061;-91
2022/10/23 00:23:37;;;;;;;11.43;6.90;;;;;;;15.31;61.54;101661.84;4992656;28;20415;-90
2022/10/23 00:26:06;;;;;;;11.95;6.25;;;;;;;14.84;61.68;101576.25;4996009;28;20030;-92
2022/10/23 00:28:34;;;;;;;10.15;6.63;;;;;;;15.25;62.17;101648.41;5028182;28;20120;-93
2022/10/23 00:31:04;;;;;;;11.60;6.80;;;;;;;15.17;61.98;101624.31;5014110;28;20112;-91
2022/10/23 00:33:31;;;;;;;11.68;6.35;;;;;;;15.30;61.81;101638.09;5014125;28;20022;-89
2022/10/23 00:36:06;;;;;;;9.93;6.28;;;;;;;15.21;62.06;101622.75;5013931;28;20529;-90
2022/10/23 00:38:39;;;;;;;10.65;6.88;;;;;;;15.27;62.20;101639.75;5014748;28;20037;-90
2022/10/23 00:41:07;;;;;;;12.27;7.03;;;;;;;15.27;62.08;101642.38;5002551;28;20045;-89
2022/10/23 00:43:58;;;;;;;9.55;6.00;;;;;;;14.87;62.30;101557.97;4984663;28;20057;-91
2022/10/23 00:46:44;;;;;;;10.60;6.47;;;;;;;15.29;61.98;101629.28;4991915;28;20030;-92
2022/10/23 00:49:11;;;;;;;9.73;6.25;;;;;;;15.23;62.10;101635.16;4997213;28;20037;-90
2022/10/23 00:51:46;;;;;;;11.43;7.10;;;;;;;15.25;62.33;101637.88;4998031;28;20037;-89
2022/10/23 00:54:13;;;;;;;9.57;6.18;;;;;;;15.24;62.13;101629.06;4994330;28;20030;-90
2022/10/23 00:56:42;;;;;;;11.15;6.65;;;;;;;15.04;62.19;101599.16;4991925;28;20121;-90
2022/10/23 00:59:10;;;;;;;11.27;7.22;;;;;;;15.32;62.13;101653.13;4993419;28;20038;-91
2022/10/23 01:01:36;;;;;;;9.45;6.70;;;;;;;15.25;62.16;101636.13;5014044;28;20149;-89
2022/10/23 01:04:04;;;;;;;10.05;6.93;;;;;;;15.27;62.23;101626.56;4993452;28;20512;-90
2022/10/23 01:06:37;;;;;;;9.98;6.50;;;;;;;15.30;62.22;101623.19;5011263;28;20479;-90
2022/10/23 01:09:14;;;;;;;10.98;6.38;;;;;;;15.25;62.30;101625.59;4996121;28;20128;-89
2022/10/23 01:11:52;;;;;;;9.90;6.47;;;;;;;15.23;62.46;101626.38;5013854;28;20671;-89
2022/10/23 01:14:20;;;;;;;10.50;6.97;;;;;;;15.02;62.23;101573.59;5015354;28;20493;-91
2022/10/23 01:16:56;;;;;;;11.65;6.80;;;;;;;15.00;62.36;101578.78;5017062;28;20028;-89
2022/10/23 01:19:49;;;;;;;10.73;7.13;;;;;;;15.27;62.47;101605.53;4996350;28;20133;-89
2022/10/23 01:22:33;;;;;;;11.13;6.75;;;;;;;15.22;62.63;101614.94;5016853;28;20037;-90
2022/10/23 01:25:24;;;;;;;10.43;6.32;;;;;;;15.18;62.51;101586.69;4997079;28;20030;-91
2022/10/23 01:27:55;;;;;;;10.88;7.10;;;;;;;15.20;62.42;101597.28;5014214;28;20113;-91
2022/10/23 01:30:21;;;;;;;11.15;6.95;;;;;;;15.15;62.44;101583.88;5011579;28;20030;-91
2022/10/23 01:33:15;;;;;;;11.07;6.68;;;;;;;15.32;62.30;101607.47;4996395;28;20462;-91
2022/10/23 01:35:59;;;;;;;12.23;6.97;;;;;;;15.04;62.51;101577.22;4991699;28;20038;-90
2022/10/23 01:38:43;;;;;;;9.90;6.78;;;;;;;15.28;62.39;101616.94;4983180;28;20061;-88
2022/10/23 01:41:41;;;;;;;11.30;6.85;;;;;;;15.34;62.31;101613.72;4994610;28;20462;-92
2022/10/23 01:44:25;;;;;;;11.15;6.82;;;;;;;15.38;62.09;101608.66;5033668;28;20044;-91
2022/10/23 01:46:52;;;;;;;10.27;6.97;;;;;;;15.14;62.21;101581.19;5014226;28;20030;-90
2022/10/23 01:49:19;;;;;;;10.52;7.00;;;;;;;15.01;62.24;101564.81;5008936;28;20038;-92
2022/10/23 01:51:48;;;;;;;10.82;7.07;;;;;;;15.18;62.16;101588.41;5016359;28;20029;-90
2022/10/23 01:54:15;;;;;;;11.13;6.90;;;;;;;15.15;62.37;101581.25;5003716;28;20125;-90
2022/10/23 01:56:43;;;;;;;11.13;7.07;;;;;;;15.18;62.36;101568.25;5004554;28;20097;-91
2022/10/23 01:59:16;;;;;;;12.32;7.30;;;;;;;15.40;62.12;101600.84;5009091;28;20034;-89
2022/10/23 02:01:45;;;;;;;10.30;6.90;;;;;;;15.32;62.15;101589.94;4996184;28;20023;-91
2022/10/23 02:04:29;;;;;;;11.38;6.72;;;;;;;15.23;61.95;101555.31;5000412;28;20513;-91
2022/10/23 02:07:01;;;;;;;11.05;7.22;;;;;;;15.25;61.91;101572.97;4992385;28;20096;-91
2022/10/23 02:09:27;;;;;;;11.32;7.57;;;;;;;15.35;61.93;101587.50;5012666;28;20028;-91
2022/10/23 02:12:03;;;;;;;11.45;7.22;;;;;;;15.46;62.15;101598.53;4993467;28;20018;-91
2022/10/23 02:14:55;;;;;;;11.10;7.22;;;;;;;15.44;61.43;101565.97;5004466;28;20058;-91
2022/10/23 02:20:45;;;;;;;12.27;7.18;;;;;;;15.34;62.00;101590.94;5013338;28;20407;-92
2022/10/23 02:23:29;;;;;;;11.20;7.25;;;;;;;15.27;62.22;101578.31;4996053;28;20018;-92
2022/10/23 02:26:07;;;;;;;12.05;7.47;;;;;;;14.96;62.21;101540.00;4989583;28;20570;-91
2022/10/23 02:28:44;;;;;;;12.15;7.50;;;;;;;15.42;62.00;101621.16;5011332;28;20067;-90
2022/10/23 02:31:13;;;;;;;10.82;7.63;;;;;;;15.15;62.00;101568.09;5018840;28;20045;-90
2022/10/23 02:33:52;;;;;;;13.05;7.55;;;;;;;15.32;62.07;101600.47;5018514;28;20036;-91
2022/10/23 02:36:18;;;;;;;11.60;7.38;;;;;;;15.30;62.19;101593.34;4994887;28;20045;-89
2022/10/23 02:38:46;;;;;;;13.63;7.78;;;;;;;15.54;61.85;101620.84;5011970;28;20558;-90
2022/10/23 02:41:28;;;;;;;13.45;7.50;;;;;;;15.48;62.10;101612.66;5013111;28;20514;-93
2022/10/23 02:44:36;;;;;;;12.25;7.50;;;;;;;15.53;61.83;101612.88;5019883;28;20026;-92
2022/10/23 02:53:28;;;;;;;10.90;7.50;;;;;;;15.59;61.72;101615.78;5014086;28;20121;-91
2022/10/23 02:56:14;;;;;;;12.93;7.53;;;;;;;15.55;61.61;101627.00;5035797;28;20056;-92
2022/10/23 03:02:01;;;;;;;11.80;7.40;;;;;;;15.21;61.88;101583.28;5012762;28;20038;-91
2022/10/23 03:04:38;;;;;;;13.15;8.10;;;;;;;15.48;62.01;101617.94;5018853;28;20100;-94
2022/10/23 03:07:03;;;;;;;13.15;8.13;;;;;;;15.54;61.51;101618.22;4996600;28;20040;-92
2022/10/23 03:09:30;;;;;;;11.85;8.10;;;;;;;15.29;61.34;101579.28;4996735;28;20030;-93
2022/10/23 03:11:59;;;;;;;13.77;8.20;;;;;;;15.53;61.73;101619.03;4996946;28;20021;-93
2022/10/23 03:14:24;;;;;;;13.00;8.32;;;;;;;15.17;61.64;101553.28;5005575;28;20111;-92
2022/10/23 03:16:52;;;;;;;11.68;7.88;;;;;;;15.11;61.90;101533.69;5004823;28;20057;-91
2022/10/23 03:19:29;;;;;;;12.93;8.15;;;;;;;15.36;62.04;101594.53;5023307;28;20025;-94
2022/10/23 03:22:02;;;;;;;;;;;;;;;15.50;61.92;101615.38;5011438;28;20022;-94
2022/10/23 03:24:35;;;;;;;11.43;7.65;;;;;;;15.49;61.94;101622.34;5026408;28;20015;-93
2022/10/23 03:27:38;;;;;;;13.48;7.90;;;;;;;15.47;61.89;101630.19;5011267;28;20515;-92
2022/10/23 03:30:17;;;;;;;12.82;8.05;;;;;;;15.31;62.01;101617.13;5009632;28;20418;-90
2022/10/23 03:32:46;;;;;;;12.60;8.05;;;;;;;15.06;61.87;101568.56;4992772;28;20026;-91
2022/10/23 03:35:19;;;;;;;12.13;8.15;;;;;;;15.44;61.72;101623.88;5010045;28;20029;-91
2022/10/23 03:37:56;;;;;;;13.57;8.18;;;;;;;15.42;61.92;101625.53;5011149;28;20522;-91
2022/10/23 03:40:29;;;;;;;14.15;8.57;;;;;;;15.27;61.87;101592.38;4994763;28;20108;-93
2022/10/23 03:43:03;;;;;;;15.25;9.25;;;;;;;15.44;61.67;101608.97;4994420;28;20025;-91
2022/10/23 03:45:40;;;;;;;12.80;8.23;;;;;;;15.19;61.84;101590.19;4999588;28;20029;-93
2022/10/23 03:48:08;;;;;;;;;;;;;;;15.47;61.75;101639.78;5021712;28;20030;-89
2022/10/23 03:53:42;;;;;;;15.13;8.98;;;;;;;15.15;61.81;101593.50;5011867;28;19975;-93
2022/10/23 03:56:32;;;;;;;14.98;8.93;;;;;;;15.47;61.58;101647.69;4995246;28;20018;-93
2022/10/23 04:02:14;;;;;;;16.17;8.45;;;;;;;15.32;61.91;101615.38;4996450;28;20167;-92
2022/10/23 04:08:01;;;;;;;15.32;8.98;;;;;;;15.45;61.88;101637.13;5018469;28;20127;-91
2022/10/23 04:10:31;;;;;;;12.98;8.57;;;;;;;15.38;61.58;101631.47;5013818;28;20491;-91
2022/10/23 04:12:57;;;;;;;14.90;9.45;;;;;;;15.24;61.89;101604.50;5015586;28;20036;-92
2022/10/23 04:15:37;;;;;;;14.45;9.00;;;;;;;15.27;61.64;101639.75;5001362;28;20057;-90
2022/10/23 04:18:11;;;;;;;13.25;8.43;;;;;;;15.11;61.60;101602.09;5017294;28;20396;-91
2022/10/23 04:21:00;;;;;;;14.45;9.38;;;;;;;15.46;61.69;101649.44;5014133;28;20030;-93
2022/10/23 04:23:36;;;;;;;14.73;9.50;;;;;;;15.43;61.76;101646.66;5002059;28;20031;-92
2022/10/23 04:26:06;;;;;;;14.65;9.90;;;;;;;15.26;61.75;101603.75;5001847;28;20499;-91
2022/10/23 04:28:32;;;;;;;14.23;9.32;;;;;;;15.38;61.76;101634.09;4999061;28;20073;-92
2022/10/23 04:31:18;;;;;;;14.55;9.80;;;;;;;15.47;61.45;101640.72;5009632;28;20026;-89
2022/10/23 04:33:44;;;;;;;15.27;9.95;;;;;;;15.04;61.59;101578.09;4998275;28;20037;-92
2022/10/23 04:36:09;;;;;;;15.90;9.80;;;;;;;15.40;61.49;101640.34;5013537;28;20034;-92
2022/10/23 04:38:43;;;;;;;16.50;9.63;;;;;;;15.35;61.61;101632.22;5010781;28;20033;-92
2022/10/23 04:41:10;;;;;;;15.75;9.70;;;;;;;15.47;61.68;101660.84;5025704;28;20073;-91
2022/10/23 04:43:38;;;;;;;15.40;9.98;;;;;;;15.48;61.54;101649.50;5012614;28;20399;-92
2022/10/23 04:46:09;;;;;;;14.75;9.65;;;;;;;15.44;61.38;101639.66;4994311;28;20034;-92
2022/10/23 04:48:40;;;;;;;16.63;10.55;;;;;;;15.34;61.39;101627.78;5014860;28;20038;-91
2022/10/23 04:51:09;;;;;;;15.30;9.50;;;;;;;15.38;61.19;101634.09;5013493;28;20049;-91
2022/10/23 04:53:37;;;;;;;18.23;10.13;;;;;;;15.47;61.32;101652.97;5006118;28;20479;-92
2022/10/23 04:56:04;;;;;;;17.83;9.88;;;;;;;15.29;61.23;101624.03;5014546;28;20034;-91
2022/10/23 04:58:32;;;;;;;17.77;10.48;;;;;;;15.52;61.40;101671.63;5007207;28;20044;-91
2022/10/23 05:00:59;;;;;;;15.63;10.25;;;;;;;15.38;61.25;101645.53;5014028;28;20041;-90
2022/10/23 05:03:40;;;;;;;16.02;10.10;;;;;;;15.48;61.30;101662.69;4997118;28;20041;-90
2022/10/23 05:06:07;;;;;;;17.38;10.20;;;;;;;15.15;61.28;101604.03;5008841;28;20035;-90
2022/10/23 05:08:39;;;;;;;17.70;10.23;;;;;;;15.45;61.52;101679.22;4998248;28;20038;-89
2022/10/23 05:11:05;;;;;;;17.17;10.73;;;;;;;15.37;61.29;101656.88;5003066;28;20062;-89
2022/10/23 05:13:35;;;;;;;16.35;10.45;;;;;;;15.32;61.46;101655.75;5014004;28;20030;-90
2022/10/23 05:16:05;;;;;;;16.10;10.95;;;;;;;15.49;61.08;101682.88;4997010;28;20094;-88
2022/10/23 05:19:06;;;;;;;14.82;10.18;;;;;;;15.45;61.51;101681.88;5008196;28;20045;-90
2022/10/23 05:21:39;;;;;;;16.55;10.02;;;;;;;15.27;61.55;101655.53;5013440;28;20033;-90
2022/10/23 05:24:17;;;;;;;19.83;10.90;;;;;;;15.32;61.45;101668.00;4992871;28;20034;-92
2022/10/23 05:26:46;;;;;;;16.90;10.50;;;;;;;15.45;61.29;101675.66;5012958;28;20034;-90
2022/10/23 05:29:19;;;;;;;17.15;10.77;;;;;;;15.50;61.47;101689.09;4993553;28;20499;-93
2022/10/23 05:32:04;;;;;;;15.75;10.25;;;;;;;15.51;61.40;101682.97;4994226;28;20021;-92
2022/10/23 05:34:31;;;;;;;16.20;10.20;;;;;;;15.19;61.38;101630.56;5000217;28;20030;-90
2022/10/23 05:36:58;;;;;;;18.90;10.65;;;;;;;15.48;61.63;101689.00;5006583;28;20488;-90
2022/10/23 05:39:24;;;;;;;18.65;11.48;;;;;;;15.03;61.33;101613.13;5011713;28;20052;-93
2022/10/23 05:41:51;;;;;;;18.92;10.85;;;;;;;15.44;61.50;101669.50;5006242;28;20503;-90
2022/10/23 05:44:19;;;;;;;16.88;11.18;;;;;;;15.51;61.20;101678.59;5011886;28;20045;-91
2022/10/23 05:46:45;;;;;;;17.65;10.75;;;;;;;15.37;61.42;101656.88;5009065;28;20037;-92
2022/10/23 05:49:13;;;;;;;17.27;10.80;;;;;;;15.51;61.44;101686.50;5011190;28;20030;-91
2022/10/23 05:51:39;;;;;;;18.60;11.25;;;;;;;15.55;61.22;101685.81;5008079;28;20034;-89
2022/10/23 05:54:09;;;;;;;16.85;10.60;;;;;;;15.15;61.41;101628.59;5008087;28;20037;-89
2022/10/23 05:56:36;;;;;;;17.23;10.88;;;;;;;15.12;61.36;101628.47;5011650;28;20030;-88
2022/10/23 05:59:02;;;;;;;18.05;11.32;;;;;;;15.12;61.48;101619.69;5010257;28;20030;-87
2022/10/23 06:01:28;;;;;;;17.85;10.68;;;;;;;15.46;61.28;101688.03;5009595;28;20079;-88
2022/10/23 06:03:54;;;;;;;17.40;10.40;;;;;;;15.32;61.55;101653.13;5000832;28;20118;-88
2022/10/23 06:06:20;;;;;;;16.30;10.38;;;;;;;15.41;61.50;101676.38;5034391;28;20080;-88
2022/10/23 06:08:45;;;;;;;16.85;11.20;;;;;;;15.47;61.63;101696.00;5012861;28;20038;-89
2022/10/23 06:11:13;;;;;;;16.42;10.68;;;;;;;15.26;61.55;101660.72;4991623;28;20030;-87
2022/10/23 06:13:41;;;;;;;16.80;10.85;;;;;;;15.49;61.82;101696.06;4991067;28;20034;-88
2022/10/23 06:16:18;;;;;;;17.52;10.65;;;;;;;15.44;61.42;101693.19;4994194;28;20423;-90
2022/10/23 06:18:44;;;;;;;;;;;;;;;15.50;61.51;101697.88;5009722;28;20030;-87
2022/10/23 06:21:12;;;;;;;16.45;10.70;;;;;;;15.50;61.51;101704.88;5017052;28;19993;-88
2022/10/23 06:23:39;;;;;;;15.35;10.68;;;;;;;15.30;61.61;101657.41;5010846;28;20038;-88
2022/10/23 06:26:05;;;;;;;17.65;10.93;;;;;;;15.39;61.73;101686.81;4988760;28;20053;-88
2022/10/23 06:28:31;;;;;;;17.67;11.75;;;;;;;15.37;61.52;101687.59;5009334;28;20026;-88
2022/10/23 06:30:57;;;;;;;21.30;11.68;;;;;;;15.29;61.33;101679.28;5010676;28;20036;-87
2022/10/23 06:33:23;;;;;;;21.33;12.57;;;;;;;15.43;61.63;101715.09;5011592;28;20407;-87
2022/10/23 06:35:48;;;;;;;21.38;12.30;;;;;;;15.42;61.56;101699.22;4995054;28;20033;-88
2022/10/23 06:38:14;;;;;;;19.35;11.68;;;;;;;15.43;61.48;101701.94;5013644;28;20038;-87
2022/10/23 06:40:40;;;;;;;18.95;12.05;;;;;;;15.33;61.37;101683.00;5011579;28;20033;-87
2022/10/23 06:43:07;;;;;;;24.52;12.20;;;;;;;15.39;61.41;101693.81;5002201;28;20082;-86
2022/10/23 06:45:33;;;;;;;21.55;13.32;;;;;;;15.48;61.21;101712.69;5010631;28;20040;-86
2022/10/23 06:47:59;;;;;;;21.83;12.18;;;;;;;15.41;61.13;101700.06;4998423;28;20018;-87
2022/10/23 06:50:26;;;;;;;22.08;12.30;;;;;;;15.45;61.25;101716.09;5020558;28;20125;-87
2022/10/23 06:52:52;;;;;;;20.48;12.13;;;;;;;15.46;60.77;101696.81;5013220;28;20022;-86
2022/10/23 06:55:22;;;;;;;19.00;11.90;;;;;;;15.40;60.93;101688.59;5009234;28;20032;-88
2022/10/23 06:57:48;;;;;;;22.80;12.98;;;;;;;15.16;60.98;101654.09;5007533;28;20109;-87
2022/10/23 07:00:13;;;;;;;20.50;12.95;;;;;;;15.26;61.12;101661.63;5002794;28;20114;-87
2022/10/23 07:02:39;;;;;;;20.45;12.38;;;;;;;15.10;61.35;101637.13;5007068;28;20038;-86
2022/10/23 07:05:05;;;;;;;17.40;11.88;;;;;;;15.40;61.89;101701.78;5007182;28;20045;-88
2022/10/23 07:07:31;;;;;;;19.73;12.32;;;;;;;15.50;61.47;101713.66;5012978;28;20026;-89
2022/10/23 07:09:56;;;;;;;19.38;12.02;;;;;;;15.26;61.17;101663.34;5013692;28;20091;-87
2022/10/23 07:12:22;;;;;;;19.88;11.63;;;;;;;15.17;60.44;101660.25;5009720;28;20557;-86
2022/10/23 07:14:48;;;;;;;21.80;12.38;;;;;;;15.50;60.58;101712.78;5020454;28;20488;-87
2022/10/23 07:17:13;;;;;;;21.27;12.32;;;;;;;15.38;60.83;101694.63;4993237;28;20169;-87
2022/10/23 07:19:39;;;;;;;22.05;12.63;;;;;;;15.40;60.65;101682.44;5019296;28;20498;-87
2022/10/23 07:22:07;;;;;;;21.75;12.32;;;;;;;15.39;60.78;101688.56;5010381;28;20026;-90
2022/10/23 07:24:52;;;;;;;20.40;11.93;;;;;;;15.55;60.76;101696.34;4991798;28;20030;-91
2022/10/23 07:27:47;;;;;;;21.50;12.52;;;;;;;15.59;61.08;101703.56;4997976;28;20113;-91
2022/10/23 07:30:18;;;;;;;23.10;12.57;;;;;;;15.61;59.85;101698.41;5010995;28;20407;-92
2022/10/23 07:32:47;;;;;;;27.83;13.35;;;;;;;15.48;60.83;101699.53;5011581;28;20469;-94
2022/10/23 07:35:19;;;;;;;29.50;12.77;;;;;;;15.58;60.59;101711.44;4994079;28;20060;-95
2022/10/23 07:38:05;;;;;;;92.53;17.38;;;;;;;15.70;61.26;101722.53;4995773;28;20582;-91
2022/10/23 07:40:32;;;;;;;59.38;14.18;;;;;;;15.27;61.21;101666.06;5005643;28;20066;-93
2022/10/23 07:43:09;;;;;;;45.20;14.82;;;;;;;15.39;61.33;101714.88;5015289;28;20715;-91
2022/10/23 07:45:48;;;;;;;43.72;14.13;;;;;;;15.50;61.26;101725.94;4986758;28;20033;-93
2022/10/23 07:48:41;;;;;;;32.70;13.43;;;;;;;15.56;61.13;101720.97;4999784;28;20393;-94
2022/10/23 07:51:11;;;;;;;34.70;12.95;;;;;;;15.39;61.25;101693.81;5015725;28;20034;-94
2022/10/23 07:53:38;;;;;;;34.35;12.73;;;;;;;15.45;61.13;101723.97;5011604;28;20035;-95
2022/10/23 07:56:15;;;;;;;;;;;;;;;15.47;61.34;101710.88;4996778;28;20063;-93
2022/10/23 07:58:41;;;;;;;28.17;12.43;;;;;;;15.37;61.63;101699.00;5020023;28;19913;-93
2022/10/23 08:01:19;;;;;;;30.55;12.48;;;;;;;15.39;61.38;101699.09;4994792;28;20037;-95
2022/10/23 08:03:45;;;;;;;27.38;12.52;;;;;;;15.39;61.32;101699.09;5010606;28;20070;-95
2022/10/23 08:06:12;;;;;;;22.40;11.77;;;;;;;15.40;61.20;101691.25;4991263;28;20435;-93
2022/10/23 08:08:41;;;;;;;27.13;12.45;;;;;;;15.47;61.44;101724.03;4995477;28;20045;-92
2022/10/23 08:11:34;;;;;;;27.80;11.15;;;;;;;15.54;61.43;101722.63;5010944;28;20033;-94
2022/10/23 08:14:16;;;;;;;23.20;11.77;;;;;;;15.54;61.34;101714.72;4995984;28;20042;-90
2022/10/23 08:16:51;;;;;;;25.27;11.60;;;;;;;15.38;61.56;101705.16;4991537;28;20040;-90
2022/10/23 08:19:19;;;;;;;27.17;12.40;;;;;;;15.36;61.71;101702.44;5012156;28;20443;-90
2022/10/23 08:21:53;;;;;;;23.88;11.40;;;;;;;15.37;61.39;101692.84;5011191;28;20035;-91
2022/10/23 08:24:20;;;;;;;23.65;11.77;;;;;;;15.40;61.62;101699.13;4993423;28;20404;-91
2022/10/23 08:26:48;;;;;;;22.65;11.60;;;;;;;15.60;61.58;101715.00;5010594;28;20029;-87
2022/10/23 08:29:14;;;;;;;22.42;11.45;;;;;;;15.45;61.50;101699.34;5014448;28;20028;-89
2022/10/23 08:31:41;;;;;;;23.02;11.57;;;;;;;15.56;61.57;101718.34;5017548;28;20030;-90
2022/10/23 08:34:08;;;;;;;20.10;11.07;;;;;;;15.41;61.71;101702.69;5008555;28;20046;-90
2022/10/23 08:36:35;;;;;;;23.95;12.25;;;;;;;15.22;61.66;101667.56;5011979;28;20014;-90
2022/10/23 08:39:01;;;;;;;23.58;11.80;;;;;;;15.55;61.87;101724.41;5012077;28;20030;-89
2022/10/23 08:41:37;;;;;;;20.35;11.60;;;;;;;15.61;61.81;101733.50;5001823;28;20640;-92
2022/10/23 08:44:25;;;;;;;20.83;10.50;;;;;;;15.60;61.79;101720.25;5009969;28;20028;-91
2022/10/23 08:47:11;;;;;;;20.45;11.65;;;;;;;15.58;61.75;101720.22;5002974;28;20022;-91
2022/10/23 08:49:55;;;;;;;16.83;10.10;;;;;;;15.54;62.27;101717.38;4990439;28;20411;-91
2022/10/23 08:53:05;;;;;;;22.05;10.35;;;;;;;15.64;62.12;101719.59;4982477;28;20019;-91
2022/10/23 08:55:55;;;;;;;24.30;10.90;;;;;;;15.72;61.74;101713.00;5001034;28;20085;-86
2022/10/23 08:58:34;;;;;;;15.52;6.55;;;;;;;16.22;63.45;101706.59;5009892;28;20030;-89
2022/10/23 09:01:16;;;;;;;21.10;8.60;;;;;;;16.04;61.68;101717.19;4993869;28;20452;-91
2022/10/23 09:03:55;;;;;;;17.55;7.55;;;;;;;15.74;62.71;101698.19;4999533;28;20021;-93
2022/10/23 09:07:02;;;;;;;12.18;6.47;;;;;;;15.94;62.85;101721.91;4994333;28;20533;-93
2022/10/23 09:09:47;;;;;;;14.45;6.80;;;;;;;15.71;62.49;101683.94;5011801;28;20034;-92
2022/10/23 09:12:15;;;;;;;16.10;6.22;;;;;;;15.92;62.65;101723.59;5016334;28;20037;-92
2022/10/23 09:14:55;;;;;;;13.77;6.32;;;;;;;15.85;62.77;101720.69;4992527;28;20133;-92
2022/10/23 09:17:28;;;;;;;16.13;6.70;;;;;;;15.77;63.01;101710.59;4979862;28;20073;-93
2022/10/23 09:20:42;;;;;;;11.43;5.85;;;;;;;15.81;62.98;101716.09;4998019;28;20026;-92
2022/10/23 09:23:44;;;;;;;9.63;6.15;;;;;;;15.80;63.25;101714.28;4992363;28;20061;-93
2022/10/23 09:26:17;;;;;;;12.20;5.60;;;;;;;15.73;62.99;101709.56;5022355;28;20060;-94
2022/10/23 09:29:23;;;;;;;15.10;6.25;;;;;;;15.87;62.89;101728.63;4986866;28;20030;-93
2022/10/23 09:31:58;;;;;;;11.90;6.22;;;;;;;15.99;62.37;101731.84;5006456;28;20461;-93
2022/10/23 09:34:29;;;;;;;12.02;5.78;;;;;;;15.90;62.85;101735.81;4993361;28;20030;-91
2022/10/23 09:37:00;;;;;;;10.48;5.97;;;;;;;15.81;63.04;101718.72;5011645;28;20076;-90
2022/10/23 09:39:32;;;;;;;9.43;5.38;;;;;;;15.74;62.74;101703.44;5010641;28;20603;-92
2022/10/23 09:42:14;;;;;;;9.93;5.68;;;;;;;15.77;62.94;101718.47;5011427;28;20030;-94
2022/10/23 09:44:49;;;;;;;12.80;5.75;;;;;;;15.81;63.28;101726.63;5006419;28;20053;-94
2022/10/23 09:47:25;;;;;;;13.50;5.53;;;;;;;15.62;62.88;101680.03;5012271;28;20380;-92
2022/10/23 09:49:59;;;;;;;12.20;5.80;;;;;;;15.54;63.08;101670.88;4996501;28;20434;-91
2022/10/23 09:52:38;;;;;;;9.65;5.43;;;;;;;15.51;62.82;101652.28;4993267;28;20120;-90
2022/10/23 09:55:35;;;;;;;12.55;5.97;;;;;;;15.53;62.88;101669.06;4977666;28;20068;-92
2022/10/23 09:58:05;;;;;;;9.30;5.40;;;;;;;15.94;62.54;101735.09;4974057;28;20411;-91
2022/10/23 10:00:31;;;;;;;10.90;5.43;;;;;;;15.94;62.95;101712.31;5003936;28;20037;-90
2022/10/23 10:03:16;;;;;;;12.38;5.57;;;;;;;15.88;62.94;101722.56;5007499;28;20128;-92
2022/10/23 10:05:43;;;;;;;13.48;5.25;;;;;;;15.94;62.83;101728.13;4995950;28;20030;-91
2022/10/23 10:08:12;;;;;;;9.82;5.13;;;;;;;16.06;62.78;101752.41;5016681;28;20071;-90
2022/10/23 10:10:43;;;;;;;9.10;5.22;;;;;;;15.64;62.77;101688.91;5027387;28;20549;-91
2022/10/23 10:13:31;;;;;;;8.48;5.63;;;;;;;15.99;62.91;101742.41;5010425;28;20034;-89
2022/10/23 10:16:06;;;;;;;;;;;;;;;16.02;63.00;101744.28;5008800;28;20128;-89
2022/10/23 10:18:55;;;;;;;8.30;5.28;;;;;;;16.03;62.98;101743.47;4988902;28;19924;-90
2022/10/23 10:21:27;;;;;;;9.48;5.18;;;;;;;16.00;63.02;101741.59;5011935;28;20030;-89
2022/10/23 10:23:59;;;;;;;7.53;5.15;;;;;;;15.92;63.13;101732.41;4995211;28;20034;-89
2022/10/23 10:26:25;;;;;;;8.85;5.80;;;;;;;16.03;63.00;101740.81;5014270;28;20021;-89
2022/10/23 10:29:05;;;;;;;9.15;5.35;;;;;;;15.81;63.04;101699.38;5014157;28;20485;-89
2022/10/23 10:31:34;;;;;;;9.07;4.88;;;;;;;16.03;63.11;101738.19;5006815;28;20224;-88
2022/10/23 10:34:24;;;;;;;13.48;5.13;;;;;;;16.10;62.93;101728.84;5029736;28;20125;-88
2022/10/23 10:36:53;;;;;;;30.05;7.13;;;;;;;16.08;63.50;101731.38;5009176;28;20025;-92
2022/10/23 10:39:38;;;;;;;23.67;6.13;;;;;;;16.06;63.27;101722.50;5010403;28;20029;-90
2022/10/23 10:42:41;;;;;;;29.08;6.88;;;;;;;16.27;63.17;101725.25;4998537;28;20041;-90
2022/10/23 10:45:17;;;;;;;17.98;6.28;;;;;;;16.28;62.74;101729.69;5011075;28;20045;-91
2022/10/23 10:48:09;;;;;;;20.92;5.95;;;;;;;16.22;63.26;101740.84;5022444;28;20063;-90
2022/10/23 10:50:54;;;;;;;15.88;5.93;;;;;;;16.21;63.20;101732.84;5010627;28;20077;-90
2022/10/23 10:53:38;;;;;;;13.18;5.75;;;;;;;16.18;63.32;101731.00;4986459;28;20430;-90
2022/10/23 10:56:11;;;;;;;14.45;5.75;;;;;;;16.16;63.02;101731.75;5013326;28;20038;-91
2022/10/23 10:58:44;;;;;;;13.30;5.40;;;;;;;16.23;62.97;101732.13;4986382;28;20514;-91
2022/10/23 11:01:16;;;;;;;15.50;5.40;;;;;;;15.92;63.09;101678.78;5011105;28;20053;-90
2022/10/23 11:03:48;;;;;;;16.10;5.07;;;;;;;16.19;63.16;101735.44;5012807;28;20051;-90
2022/10/23 11:06:20;;;;;;;11.82;5.45;;;;;;;16.12;63.69;101730.69;5002318;28;20076;-91
2022/10/23 11:08:45;;;;;;;12.10;5.32;;;;;;;16.00;63.32;101716.94;5003931;28;20503;-91
2022/10/23 11:11:40;;;;;;;12.05;5.15;;;;;;;16.29;63.07;101742.03;4994946;28;20026;-92
2022/10/23 11:14:15;;;;;;;14.77;5.05;;;;;;;16.26;62.96;101723.44;5007535;28;20050;-92
2022/10/23 11:16:57;;;;;;;10.60;5.10;;;;;;;16.22;63.17;101735.56;4980962;28;20515;-92
2022/10/23 11:19:39;;;;;;;9.32;4.72;;;;;;;16.15;63.06;101720.31;5008240;28;20061;-93
2022/10/23 11:22:42;;;;;;;12.38;5.30;;;;;;;16.22;63.30;101734.69;5007304;28;20025;-92
2022/10/23 11:25:46;;;;;;;11.55;4.60;;;;;;;16.23;63.32;101725.94;5030323;28;20099;-91
2022/10/23 11:28:51;;;;;;;6.90;4.32;;;;;;;16.21;63.62;101728.50;4994050;28;20446;-93
2022/10/23 11:31:35;;;;;;;8.57;4.90;;;;;;;16.26;63.10;101729.63;5013568;28;20035;-95
2022/10/23 11:34:34;;;;;;;10.65;4.75;;;;;;;16.32;63.25;101725.44;5023363;28;20396;-91
2022/10/23 11:37:00;;;;;;;7.47;4.25;;;;;;;16.31;63.25;101735.09;5027992;28;20041;-93
2022/10/23 11:39:54;;;;;;;;;;;;;;;16.42;62.96;101733.84;5009603;28;20057;-93
2022/10/23 11:42:50;;;;;;;8.63;4.47;;;;;;;16.53;62.38;101728.16;5007328;28;20323;-92
2022/10/23 11:45:28;;;;;;;7.53;4.47;;;;;;;16.55;62.51;101729.13;5010345;28;20060;-94
2022/10/23 11:48:22;;;;;;;8.48;4.68;;;;;;;16.63;62.43;101722.47;5008632;28;20061;-92
2022/10/23 11:51:02;;;;;;;20.42;5.95;;;;;;;16.54;62.95;101685.16;5001928;28;20123;-94
2022/10/23 11:53:38;;;;;;;13.18;5.35;;;;;;;16.38;62.72;101689.75;4992979;28;20036;-95
2022/10/23 11:56:35;;;;;;;15.27;4.90;;;;;;;16.77;62.26;101712.53;5002320;28;20038;-94
2022/10/23 11:59:54;;;;;;;12.83;5.03;;;;;;;16.73;62.11;101707.97;5011752;28;20034;-92
2022/10/23 12:02:48;;;;;;;12.80;5.20;;;;;;;16.72;62.40;101715.00;5015345;28;20289;-91
2022/10/23 12:05:40;;;;;;;9.82;4.32;;;;;;;16.71;62.25;101715.81;5014792;28;20113;-94
2022/10/23 12:08:56;;;;;;;10.38;4.90;;;;;;;16.72;62.38;101714.06;5009641;28;20034;-93
2022/10/23 12:11:50;;;;;;;13.00;4.53;;;;;;;16.85;61.70;101724.38;5026692;28;20025;-94
2022/10/23 12:14:32;;;;;;;10.55;4.30;;;;;;;16.31;61.84;101641.94;5005773;28;20106;-94
2022/10/23 12:16:59;;;;;;;227.60;20.23;;;;;;;16.39;63.35;101645.81;5000346;28;20048;-95